Terminal Aerodrome Forecast
Issued by NWS

Home | Current Version | Previous Version | Text Only | Print | Product List | Glossary On
Versions: 1 2 3 4 5 6 7 8 9 10 11 12 13 14
000
FTUS45 KABQ 011740
TAFFMN
TAF
KFMN 011740Z 0118/0218 09010G20KT P6SM VCSH SCT025 BKN035
      TEMPO 0118/0121 5SM -RA OVC025
     FM012100 13015G25KT P6SM VCSH BKN040 OVC060
     FM020200 10012KT P6SM BKN070
     FM020800 09006KT P6SM BKN080=

USA.gov is the U.S. government's official web portal to all federal, state and local government web resources and services.